sensor_id;sensor_type;location;lat;lon;timestamp;temperature;humidity
65371;DHT22;58485;59.934;30.352;2022-09-09T00:00:46;23.17;43.38
65371;DHT22;58485;59.934;30.352;2022-09-09T00:01:46;23.17;43.39
65371;DHT22;58485;59.934;30.352;2022-09-09T00:02:46;23.16;43.51
65371;DHT22;58485;59.934;30.352;2022-09-09T00:03:47;23.16;43.49
65371;DHT22;58485;59.934;30.352;2022-09-09T00:04:42;23.16;43.58
65371;DHT22;58485;59.934;30.352;2022-09-09T00:05:41;23.16;43.40
65371;DHT22;58485;59.934;30.352;2022-09-09T00:06:44;23.14;43.39
65371;DHT22;58485;59.934;30.352;2022-09-09T00:07:43;23.14;43.36
65371;DHT22;58485;59.934;30.352;2022-09-09T00:08:46;23.13;43.41
65371;DHT22;58485;59.934;30.352;2022-09-09T00:09:46;23.14;43.45
65371;DHT22;58485;59.934;30.352;2022-09-09T00:10:41;23.15;43.52
65371;DHT22;58485;59.934;30.352;2022-09-09T00:11:40;23.14;43.39
65371;DHT22;58485;59.934;30.352;2022-09-09T00:12:37;23.14;43.41
65371;DHT22;58485;59.934;30.352;2022-09-09T00:13:36;23.13;43.46
65371;DHT22;58485;59.934;30.352;2022-09-09T00:14:37;23.13;43.42
65371;DHT22;58485;59.934;30.352;2022-09-09T00:15:37;23.13;43.42
65371;DHT22;58485;59.934;30.352;2022-09-09T00:16:34;23.12;43.48
65371;DHT22;58485;59.934;30.352;2022-09-09T00:17:34;23.12;43.32
65371;DHT22;58485;59.934;30.352;2022-09-09T00:18:37;23.11;43.34
65371;DHT22;58485;59.934;30.352;2022-09-09T00:19:37;23.12;43.45
65371;DHT22;58485;59.934;30.352;2022-09-09T00:20:37;23.10;43.42
65371;DHT22;58485;59.934;30.352;2022-09-09T00:21:34;23.10;43.54
65371;DHT22;58485;59.934;30.352;2022-09-09T00:22:29;23.10;43.51
65371;DHT22;58485;59.934;30.352;2022-09-09T00:23:24;23.10;43.40
65371;DHT22;58485;59.934;30.352;2022-09-09T00:24:23;23.10;43.38
65371;DHT22;58485;59.934;30.352;2022-09-09T00:25:21;23.09;43.34
65371;DHT22;58485;59.934;30.352;2022-09-09T00:26:22;23.09;43.24
65371;DHT22;58485;59.934;30.352;2022-09-09T00:27:26;23.08;43.23
65371;DHT22;58485;59.934;30.352;2022-09-09T00:28:26;23.07;43.40
65371;DHT22;58485;59.934;30.352;2022-09-09T00:29:23;23.07;43.34
65371;DHT22;58485;59.934;30.352;2022-09-09T00:30:22;23.07;43.45
65371;DHT22;58485;59.934;30.352;2022-09-09T00:31:18;23.07;43.46
65371;DHT22;58485;59.934;30.352;2022-09-09T00:32:14;23.07;43.46
65371;DHT22;58485;59.934;30.352;2022-09-09T00:33:11;23.07;43.32
65371;DHT22;58485;59.934;30.352;2022-09-09T00:34:11;23.06;43.35
65371;DHT22;58485;59.934;30.352;2022-09-09T00:35:16;23.06;43.23
65371;DHT22;58485;59.934;30.352;2022-09-09T00:36:13;23.06;43.39
65371;DHT22;58485;59.934;30.352;2022-09-09T00:37:08;23.07;43.35
65371;DHT22;58485;59.934;30.352;2022-09-09T00:38:02;23.05;43.39
65371;DHT22;58485;59.934;30.352;2022-09-09T00:39:00;23.06;43.39
65371;DHT22;58485;59.934;30.352;2022-09-09T00:39:55;23.05;43.39
65371;DHT22;58485;59.934;30.352;2022-09-09T00:40:52;23.03;43.39
65371;DHT22;58485;59.934;30.352;2022-09-09T00:41:55;23.05;43.29
65371;DHT22;58485;59.934;30.352;2022-09-09T00:43:06;23.03;43.26
65371;DHT22;58485;59.934;30.352;2022-09-09T00:44:23;23.02;43.29
65371;DHT22;58485;59.934;30.352;2022-09-09T00:45:42;23.00;43.27
65371;DHT22;58485;59.934;30.352;2022-09-09T00:46:54;23.00;43.29
65371;DHT22;58485;59.934;30.352;2022-09-09T00:47:50;23.00;43.42
65371;DHT22;58485;59.934;30.352;2022-09-09T00:48:49;23.00;43.29
65371;DHT22;58485;59.934;30.352;2022-09-09T00:49:53;23.00;43.26
65371;DHT22;58485;59.934;30.352;2022-09-09T00:50:55;22.99;43.40
65371;DHT22;58485;59.934;30.352;2022-09-09T00:51:56;22.99;43.24
65371;DHT22;58485;59.934;30.352;2022-09-09T00:52:59;22.98;43.30
65371;DHT22;58485;59.934;30.352;2022-09-09T00:54:08;22.98;43.26
65371;DHT22;58485;59.934;30.352;2022-09-09T00:55:13;22.98;43.31
65371;DHT22;58485;59.934;30.352;2022-09-09T00:56:13;22.98;43.29
65371;DHT22;58485;59.934;30.352;2022-09-09T00:57:17;22.97;43.28
65371;DHT22;58485;59.934;30.352;2022-09-09T00:58:15;22.96;43.42
65371;DHT22;58485;59.934;30.352;2022-09-09T00:59:14;22.97;43.14
65371;DHT22;58485;59.934;30.352;2022-09-09T01:00:20;22.97;43.30
65371;DHT22;58485;59.934;30.352;2022-09-09T01:01:13;22.96;43.42
65371;DHT22;58485;59.934;30.352;2022-09-09T01:02:13;22.95;43.17
65371;DHT22;58485;59.934;30.352;2022-09-09T01:03:30;22.96;43.26
65371;DHT22;58485;59.934;30.352;2022-09-09T01:04:29;22.95;43.38
65371;DHT22;58485;59.934;30.352;2022-09-09T01:05:30;22.94;43.32
65371;DHT22;58485;59.934;30.352;2022-09-09T01:06:30;22.94;43.29
65371;DHT22;58485;59.934;30.352;2022-09-09T01:07:22;22.95;43.42
65371;DHT22;58485;59.934;30.352;2022-09-09T01:08:29;22.96;43.14
65371;DHT22;58485;59.934;30.352;2022-09-09T01:09:33;22.94;43.31
65371;DHT22;58485;59.934;30.352;2022-09-09T01:10:38;22.94;43.20
65371;DHT22;58485;59.934;30.352;2022-09-09T01:11:43;22.95;43.26
65371;DHT22;58485;59.934;30.352;2022-09-09T01:12:43;22.93;43.36
65371;DHT22;58485;59.934;30.352;2022-09-09T01:13:37;22.95;43.40
65371;DHT22;58485;59.934;30.352;2022-09-09T01:14:38;22.94;43.27
65371;DHT22;58485;59.934;30.352;2022-09-09T01:15:32;22.94;43.33
65371;DHT22;58485;59.934;30.352;2022-09-09T01:16:25;22.94;43.36
65371;DHT22;58485;59.934;30.352;2022-09-09T01:17:20;22.93;43.24
65371;DHT22;58485;59.934;30.352;2022-09-09T01:18:17;22.93;43.30
65371;DHT22;58485;59.934;30.352;2022-09-09T01:19:15;22.93;43.20
65371;DHT22;58485;59.934;30.352;2022-09-09T01:20:14;22.93;43.31
65371;DHT22;58485;59.934;30.352;2022-09-09T01:21:17;22.92;43.20
65371;DHT22;58485;59.934;30.352;2022-09-09T01:22:21;22.91;43.21
65371;DHT22;58485;59.934;30.352;2022-09-09T01:23:37;22.90;43.16
65371;DHT22;58485;59.934;30.352;2022-09-09T01:24:40;22.91;43.25
65371;DHT22;58485;59.934;30.352;2022-09-09T01:26:16;22.90;43.19
65371;DHT22;58485;59.934;30.352;2022-09-09T01:27:10;22.87;43.39
65371;DHT22;58485;59.934;30.352;2022-09-09T01:28:05;22.90;43.34
65371;DHT22;58485;59.934;30.352;2022-09-09T01:29:00;22.87;43.37
65371;DHT22;58485;59.934;30.352;2022-09-09T01:29:51;22.90;43.40
65371;DHT22;58485;59.934;30.352;2022-09-09T01:30:44;22.88;43.39
65371;DHT22;58485;59.934;30.352;2022-09-09T01:31:38;22.88;43.32
65371;DHT22;58485;59.934;30.352;2022-09-09T01:32:40;22.90;43.21
65371;DHT22;58485;59.934;30.352;2022-09-09T01:33:32;22.88;43.39
65371;DHT22;58485;59.934;30.352;2022-09-09T01:34:27;22.88;43.32
65371;DHT22;58485;59.934;30.352;2022-09-09T01:35:34;22.88;43.26
65371;DHT22;58485;59.934;30.352;2022-09-09T01:36:35;22.87;43.35
65371;DHT22;58485;59.934;30.352;2022-09-09T01:37:30;22.88;43.41
65371;DHT22;58485;59.934;30.352;2022-09-09T01:38:23;22.87;43.39
65371;DHT22;58485;59.934;30.352;2022-09-09T01:39:15;22.87;43.41
65371;DHT22;58485;59.934;30.352;2022-09-09T01:40:08;22.88;43.39
65371;DHT22;58485;59.934;30.352;2022-09-09T01:40:59;22.88;43.38
65371;DHT22;58485;59.934;30.352;2022-09-09T01:41:55;22.88;43.28
65371;DHT22;58485;59.934;30.352;2022-09-09T01:42:47;22.87;43.36
65371;DHT22;58485;59.934;30.352;2022-09-09T01:43:39;22.88;43.35
65371;DHT22;58485;59.934;30.352;2022-09-09T01:44:30;22.87;43.35
65371;DHT22;58485;59.934;30.352;2022-09-09T01:45:24;22.88;43.35
65371;DHT22;58485;59.934;30.352;2022-09-09T01:46:16;22.88;43.32
65371;DHT22;58485;59.934;30.352;2022-09-09T01:47:08;22.87;43.32
65371;DHT22;58485;59.934;30.352;2022-09-09T01:48:01;22.88;43.32
65371;DHT22;58485;59.934;30.352;2022-09-09T01:48:54;22.87;43.27
65371;DHT22;58485;59.934;30.352;2022-09-09T01:49:47;22.87;43.31
65371;DHT22;58485;59.934;30.352;2022-09-09T01:50:38;22.88;43.32
65371;DHT22;58485;59.934;30.352;2022-09-09T01:51:30;22.87;43.31
65371;DHT22;58485;59.934;30.352;2022-09-09T01:52:22;22.88;43.29
65371;DHT22;58485;59.934;30.352;2022-09-09T01:53:15;22.88;43.26
65371;DHT22;58485;59.934;30.352;2022-09-09T01:54:08;22.88;43.31
65371;DHT22;58485;59.934;30.352;2022-09-09T01:55:00;22.88;43.29
65371;DHT22;58485;59.934;30.352;2022-09-09T01:56:02;22.90;43.10
65371;DHT22;58485;59.934;30.352;2022-09-09T01:57:06;22.86;43.15
65371;DHT22;58485;59.934;30.352;2022-09-09T01:58:15;22.87;43.09
65371;DHT22;58485;59.934;30.352;2022-09-09T01:59:23;22.85;43.08
65371;DHT22;58485;59.934;30.352;2022-09-09T02:00:18;22.85;43.26
65371;DHT22;58485;59.934;30.352;2022-09-09T02:01:18;22.86;43.06
65371;DHT22;58485;59.934;30.352;2022-09-09T02:02:18;22.85;43.16
65371;DHT22;58485;59.934;30.352;2022-09-09T02:03:19;22.85;43.12
65371;DHT22;58485;59.934;30.352;2022-09-09T02:04:24;22.84;43.11
65371;DHT22;58485;59.934;30.352;2022-09-09T02:05:26;22.82;43.16
65371;DHT22;58485;59.934;30.352;2022-09-09T02:06:27;22.82;43.15
65371;DHT22;58485;59.934;30.352;2022-09-09T02:07:30;22.81;43.22
65371;DHT22;58485;59.934;30.352;2022-09-09T02:08:35;22.81;43.16
65371;DHT22;58485;59.934;30.352;2022-09-09T02:09:31;22.81;43.29
65371;DHT22;58485;59.934;30.352;2022-09-09T02:10:26;22.81;43.17
65371;DHT22;58485;59.934;30.352;2022-09-09T02:11:24;22.81;43.26
65371;DHT22;58485;59.934;30.352;2022-09-09T02:12:19;22.80;43.17
65371;DHT22;58485;59.934;30.352;2022-09-09T02:13:17;22.80;43.21
65371;DHT22;58485;59.934;30.352;2022-09-09T02:14:14;22.80;43.19
65371;DHT22;58485;59.934;30.352;2022-09-09T02:15:17;22.81;43.13
65371;DHT22;58485;59.934;30.352;2022-09-09T02:16:14;22.80;43.20
65371;DHT22;58485;59.934;30.352;2022-09-09T02:17:11;22.80;43.25
65371;DHT22;58485;59.934;30.352;2022-09-09T02:18:07;22.80;43.16
65371;DHT22;58485;59.934;30.352;2022-09-09T02:19:04;22.80;43.20
65371;DHT22;58485;59.934;30.352;2022-09-09T02:20:03;22.80;43.14
65371;DHT22;58485;59.934;30.352;2022-09-09T02:20:59;22.80;43.24
65371;DHT22;58485;59.934;30.352;2022-09-09T02:21:52;22.80;43.25
65371;DHT22;58485;59.934;30.352;2022-09-09T02:22:48;22.79;43.25
65371;DHT22;58485;59.934;30.352;2022-09-09T02:23:41;22.80;43.26
65371;DHT22;58485;59.934;30.352;2022-09-09T02:24:36;22.79;43.18
65371;DHT22;58485;59.934;30.352;2022-09-09T02:25:30;22.79;43.22
65371;DHT22;58485;59.934;30.352;2022-09-09T02:26:23;22.80;43.20
65371;DHT22;58485;59.934;30.352;2022-09-09T02:27:18;22.79;43.19
65371;DHT22;58485;59.934;30.352;2022-09-09T02:28:14;22.79;43.14
65371;DHT22;58485;59.934;30.352;2022-09-09T02:29:09;22.79;43.06
65371;DHT22;58485;59.934;30.352;2022-09-09T02:30:04;22.79;43.17
65371;DHT22;58485;59.934;30.352;2022-09-09T02:30:56;22.78;43.19
65371;DHT22;58485;59.934;30.352;2022-09-09T02:31:49;22.78;43.16
65371;DHT22;58485;59.934;30.352;2022-09-09T02:32:42;22.79;43.16
65371;DHT22;58485;59.934;30.352;2022-09-09T02:33:38;22.79;43.10
65371;DHT22;58485;59.934;30.352;2022-09-09T02:34:34;22.79;43.10
65371;DHT22;58485;59.934;30.352;2022-09-09T02:35:30;22.79;43.02
65371;DHT22;58485;59.934;30.352;2022-09-09T02:36:24;22.79;43.11
65371;DHT22;58485;59.934;30.352;2022-09-09T02:37:22;22.79;43.06
65371;DHT22;58485;59.934;30.352;2022-09-09T02:38:16;22.79;43.09
65371;DHT22;58485;59.934;30.352;2022-09-09T02:39:10;22.77;43.07
65371;DHT22;58485;59.934;30.352;2022-09-09T02:40:02;22.78;43.09
65371;DHT22;58485;59.934;30.352;2022-09-09T02:40:54;22.79;43.08
65371;DHT22;58485;59.934;30.352;2022-09-09T02:41:46;22.78;43.09
65371;DHT22;58485;59.934;30.352;2022-09-09T02:42:41;22.79;42.98
65371;DHT22;58485;59.934;30.352;2022-09-09T02:43:34;22.78;43.05
65371;DHT22;58485;59.934;30.352;2022-09-09T02:44:27;22.78;43.06
65371;DHT22;58485;59.934;30.352;2022-09-09T02:45:22;22.78;43.02
65371;DHT22;58485;59.934;30.352;2022-09-09T02:46:27;22.76;42.84
65371;DHT22;58485;59.934;30.352;2022-09-09T02:47:32;22.76;42.89
65371;DHT22;58485;59.934;30.352;2022-09-09T02:48:28;22.75;42.83
65371;DHT22;58485;59.934;30.352;2022-09-09T02:49:29;22.75;42.98
65371;DHT22;58485;59.934;30.352;2022-09-09T02:50:32;22.73;43.00
65371;DHT22;58485;59.934;30.352;2022-09-09T02:51:29;22.75;42.91
65371;DHT22;58485;59.934;30.352;2022-09-09T02:52:32;22.73;42.96
65371;DHT22;58485;59.934;30.352;2022-09-09T02:53:36;22.71;43.01
65371;DHT22;58485;59.934;30.352;2022-09-09T02:54:34;22.73;43.09
65371;DHT22;58485;59.934;30.352;2022-09-09T02:55:35;22.75;42.95
65371;DHT22;58485;59.934;30.352;2022-09-09T02:56:31;22.73;43.06
65371;DHT22;58485;59.934;30.352;2022-09-09T02:57:28;22.73;43.04
65371;DHT22;58485;59.934;30.352;2022-09-09T02:58:24;22.72;43.03
65371;DHT22;58485;59.934;30.352;2022-09-09T02:59:16;22.72;43.04
65371;DHT22;58485;59.934;30.352;2022-09-09T03:00:10;22.75;43.01
65371;DHT22;58485;59.934;30.352;2022-09-09T03:01:02;22.72;43.04
65371;DHT22;58485;59.934;30.352;2022-09-09T03:01:54;22.73;43.03
65371;DHT22;58485;59.934;30.352;2022-09-09T03:02:45;22.73;43.04
65371;DHT22;58485;59.934;30.352;2022-09-09T03:03:38;22.73;43.03
65371;DHT22;58485;59.934;30.352;2022-09-09T03:04:29;22.72;43.04
65371;DHT22;58485;59.934;30.352;2022-09-09T03:05:21;22.72;43.03
65371;DHT22;58485;59.934;30.352;2022-09-09T03:06:13;22.72;42.99
65371;DHT22;58485;59.934;30.352;2022-09-09T03:07:05;22.73;43.00
65371;DHT22;58485;59.934;30.352;2022-09-09T03:07:56;22.73;42.98
65371;DHT22;58485;59.934;30.352;2022-09-09T03:08:48;22.73;42.99
65371;DHT22;58485;59.934;30.352;2022-09-09T03:09:40;22.73;42.98
65371;DHT22;58485;59.934;30.352;2022-09-09T03:10:32;22.75;42.99
65371;DHT22;58485;59.934;30.352;2022-09-09T03:11:24;22.75;42.97
65371;DHT22;58485;59.934;30.352;2022-09-09T03:12:16;22.73;43.00
65371;DHT22;58485;59.934;30.352;2022-09-09T03:13:07;22.73;43.01
65371;DHT22;58485;59.934;30.352;2022-09-09T03:14:01;22.73;42.96
65371;DHT22;58485;59.934;30.352;2022-09-09T03:14:53;22.73;43.03
65371;DHT22;58485;59.934;30.352;2022-09-09T03:15:45;22.73;43.03
65371;DHT22;58485;59.934;30.352;2022-09-09T03:16:36;22.73;42.99
65371;DHT22;58485;59.934;30.352;2022-09-09T03:17:28;22.73;42.99
65371;DHT22;58485;59.934;30.352;2022-09-09T03:18:20;22.73;42.98
65371;DHT22;58485;59.934;30.352;2022-09-09T03:19:12;22.72;42.99
65371;DHT22;58485;59.934;30.352;2022-09-09T03:20:03;22.72;42.97
65371;DHT22;58485;59.934;30.352;2022-09-09T03:20:56;22.73;42.96
65371;DHT22;58485;59.934;30.352;2022-09-09T03:21:48;22.72;42.96
65371;DHT22;58485;59.934;30.352;2022-09-09T03:22:40;22.73;42.96
65371;DHT22;58485;59.934;30.352;2022-09-09T03:23:31;22.73;42.96
65371;DHT22;58485;59.934;30.352;2022-09-09T03:24:23;22.73;42.97
65371;DHT22;58485;59.934;30.352;2022-09-09T03:25:15;22.72;42.96
65371;DHT22;58485;59.934;30.352;2022-09-09T03:26:08;22.71;42.94
65371;DHT22;58485;59.934;30.352;2022-09-09T03:26:59;22.71;42.93
65371;DHT22;58485;59.934;30.352;2022-09-09T03:27:53;22.71;42.91
65371;DHT22;58485;59.934;30.352;2022-09-09T03:28:45;22.71;42.92
65371;DHT22;58485;59.934;30.352;2022-09-09T03:29:38;22.72;42.90
65371;DHT22;58485;59.934;30.352;2022-09-09T03:30:30;22.72;42.92
65371;DHT22;58485;59.934;30.352;2022-09-09T03:31:22;22.71;42.90
65371;DHT22;58485;59.934;30.352;2022-09-09T03:32:13;22.69;42.88
65371;DHT22;58485;59.934;30.352;2022-09-09T03:33:06;22.71;42.90
65371;DHT22;58485;59.934;30.352;2022-09-09T03:33:57;22.70;42.89
65371;DHT22;58485;59.934;30.352;2022-09-09T03:34:49;22.71;42.89
65371;DHT22;58485;59.934;30.352;2022-09-09T03:35:45;22.70;42.75
65371;DHT22;58485;59.934;30.352;2022-09-09T03:36:39;22.69;42.87
65371;DHT22;58485;59.934;30.352;2022-09-09T03:37:32;22.69;42.87
65371;DHT22;58485;59.934;30.352;2022-09-09T03:38:23;22.70;42.87
65371;DHT22;58485;59.934;30.352;2022-09-09T03:39:16;22.71;42.86
65371;DHT22;58485;59.934;30.352;2022-09-09T03:40:08;22.70;42.85
65371;DHT22;58485;59.934;30.352;2022-09-09T03:41:01;22.69;42.86
65371;DHT22;58485;59.934;30.352;2022-09-09T03:41:52;22.71;42.85
65371;DHT22;58485;59.934;30.352;2022-09-09T03:42:45;22.69;42.87
65371;DHT22;58485;59.934;30.352;2022-09-09T03:43:36;22.69;42.87
65371;DHT22;58485;59.934;30.352;2022-09-09T03:44:28;22.69;42.89
65371;DHT22;58485;59.934;30.352;2022-09-09T03:45:20;22.69;42.83
65371;DHT22;58485;59.934;30.352;2022-09-09T03:46:12;22.69;42.87
65371;DHT22;58485;59.934;30.352;2022-09-09T03:47:04;22.70;42.87
65371;DHT22;58485;59.934;30.352;2022-09-09T03:47:56;22.69;42.86
65371;DHT22;58485;59.934;30.352;2022-09-09T03:48:48;22.68;42.87
65371;DHT22;58485;59.934;30.352;2022-09-09T03:49:40;22.70;42.85
65371;DHT22;58485;59.934;30.352;2022-09-09T03:50:31;22.70;42.84
65371;DHT22;58485;59.934;30.352;2022-09-09T03:51:23;22.71;42.84
65371;DHT22;58485;59.934;30.352;2022-09-09T03:52:15;22.69;42.83
65371;DHT22;58485;59.934;30.352;2022-09-09T03:53:09;22.69;42.83
65371;DHT22;58485;59.934;30.352;2022-09-09T03:54:00;22.69;42.82
65371;DHT22;58485;59.934;30.352;2022-09-09T03:54:52;22.69;42.81
65371;DHT22;58485;59.934;30.352;2022-09-09T03:55:45;22.69;42.81
65371;DHT22;58485;59.934;30.352;2022-09-09T03:56:37;22.69;42.79
65371;DHT22;58485;59.934;30.352;2022-09-09T03:57:28;22.69;42.81
65371;DHT22;58485;59.934;30.352;2022-09-09T03:58:22;22.68;42.81
65371;DHT22;58485;59.934;30.352;2022-09-09T03:59:14;22.68;42.80
65371;DHT22;58485;59.934;30.352;2022-09-09T04:00:08;22.68;42.77
65371;DHT22;58485;59.934;30.352;2022-09-09T04:01:03;22.68;42.66
65371;DHT22;58485;59.934;30.352;2022-09-09T04:01:56;22.66;42.81
65371;DHT22;58485;59.934;30.352;2022-09-09T04:02:49;22.67;42.83
65371;DHT22;58485;59.934;30.352;2022-09-09T04:03:47;22.67;42.84
65371;DHT22;58485;59.934;30.352;2022-09-09T04:04:38;22.66;42.84
65371;DHT22;58485;59.934;30.352;2022-09-09T04:05:30;22.67;42.82
65371;DHT22;58485;59.934;30.352;2022-09-09T04:06:24;22.66;42.87
65371;DHT22;58485;59.934;30.352;2022-09-09T04:07:17;22.67;42.87
65371;DHT22;58485;59.934;30.352;2022-09-09T04:08:08;22.65;42.87
65371;DHT22;58485;59.934;30.352;2022-09-09T04:09:02;22.66;42.89
65371;DHT22;58485;59.934;30.352;2022-09-09T04:09:53;22.66;42.89
65371;DHT22;58485;59.934;30.352;2022-09-09T04:10:46;22.66;42.87
65371;DHT22;58485;59.934;30.352;2022-09-09T04:11:37;22.66;42.88
65371;DHT22;58485;59.934;30.352;2022-09-09T04:12:29;22.65;42.85
65371;DHT22;58485;59.934;30.352;2022-09-09T04:13:21;22.65;42.87
65371;DHT22;58485;59.934;30.352;2022-09-09T04:14:13;22.65;42.86
65371;DHT22;58485;59.934;30.352;2022-09-09T04:15:05;22.65;42.84
65371;DHT22;58485;59.934;30.352;2022-09-09T04:15:59;22.65;42.84
65371;DHT22;58485;59.934;30.352;2022-09-09T04:16:52;22.65;42.87
65371;DHT22;58485;59.934;30.352;2022-09-09T04:17:44;22.64;42.88
65371;DHT22;58485;59.934;30.352;2022-09-09T04:18:35;22.63;42.84
65371;DHT22;58485;59.934;30.352;2022-09-09T04:19:27;22.65;42.86
65371;DHT22;58485;59.934;30.352;2022-09-09T04:20:18;22.64;42.86
65371;DHT22;58485;59.934;30.352;2022-09-09T04:21:11;22.65;42.87
65371;DHT22;58485;59.934;30.352;2022-09-09T04:22:03;22.65;42.85
65371;DHT22;58485;59.934;30.352;2022-09-09T04:22:56;22.64;42.87
65371;DHT22;58485;59.934;30.352;2022-09-09T04:23:47;22.64;42.87
65371;DHT22;58485;59.934;30.352;2022-09-09T04:24:39;22.63;42.87
65371;DHT22;58485;59.934;30.352;2022-09-09T04:25:30;22.63;42.85
65371;DHT22;58485;59.934;30.352;2022-09-09T04:26:23;22.63;42.86
65371;DHT22;58485;59.934;30.352;2022-09-09T04:27:14;22.63;42.85
65371;DHT22;58485;59.934;30.352;2022-09-09T04:28:06;22.63;42.84
65371;DHT22;58485;59.934;30.352;2022-09-09T04:28:58;22.64;42.85
65371;DHT22;58485;59.934;30.352;2022-09-09T04:29:49;22.62;42.84
65371;DHT22;58485;59.934;30.352;2022-09-09T04:30:42;22.62;42.83
65371;DHT22;58485;59.934;30.352;2022-09-09T04:31:35;22.61;42.77
65371;DHT22;58485;59.934;30.352;2022-09-09T04:32:32;22.62;42.84
65371;DHT22;58485;59.934;30.352;2022-09-09T04:33:23;22.62;42.83
65371;DHT22;58485;59.934;30.352;2022-09-09T04:34:17;22.61;42.84
65371;DHT22;58485;59.934;30.352;2022-09-09T04:35:08;22.61;42.85
65371;DHT22;58485;59.934;30.352;2022-09-09T04:36:01;22.62;42.84
65371;DHT22;58485;59.934;30.352;2022-09-09T04:36:52;22.61;42.86
65371;DHT22;58485;59.934;30.352;2022-09-09T04:37:45;22.62;42.85
65371;DHT22;58485;59.934;30.352;2022-09-09T04:38:36;22.61;42.85
65371;DHT22;58485;59.934;30.352;2022-09-09T04:39:28;22.61;42.84
65371;DHT22;58485;59.934;30.352;2022-09-09T04:40:19;22.60;42.84
65371;DHT22;58485;59.934;30.352;2022-09-09T04:41:12;22.62;42.84
65371;DHT22;58485;59.934;30.352;2022-09-09T04:42:04;22.61;42.83
65371;DHT22;58485;59.934;30.352;2022-09-09T04:42:57;22.61;42.85
65371;DHT22;58485;59.934;30.352;2022-09-09T04:43:49;22.61;42.87
65371;DHT22;58485;59.934;30.352;2022-09-09T04:44:44;22.60;42.88
65371;DHT22;58485;59.934;30.352;2022-09-09T04:45:35;22.61;42.85
65371;DHT22;58485;59.934;30.352;2022-09-09T04:46:27;22.60;42.86
65371;DHT22;58485;59.934;30.352;2022-09-09T04:47:20;22.60;42.83
65371;DHT22;58485;59.934;30.352;2022-09-09T04:48:12;22.60;42.85
65371;DHT22;58485;59.934;30.352;2022-09-09T04:49:04;22.61;42.84
65371;DHT22;58485;59.934;30.352;2022-09-09T04:49:56;22.61;42.86
65371;DHT22;58485;59.934;30.352;2022-09-09T04:50:57;22.60;42.74
65371;DHT22;58485;59.934;30.352;2022-09-09T04:51:50;22.60;42.90
65371;DHT22;58485;59.934;30.352;2022-09-09T04:52:42;22.60;42.92
65371;DHT22;58485;59.934;30.352;2022-09-09T04:53:34;22.58;42.94
65371;DHT22;58485;59.934;30.352;2022-09-09T04:54:25;22.60;42.94
65371;DHT22;58485;59.934;30.352;2022-09-09T04:55:18;22.60;42.95
65371;DHT22;58485;59.934;30.352;2022-09-09T04:56:10;22.60;42.96
65371;DHT22;58485;59.934;30.352;2022-09-09T04:57:04;22.60;42.96
65371;DHT22;58485;59.934;30.352;2022-09-09T04:57:55;22.60;42.99
65371;DHT22;58485;59.934;30.352;2022-09-09T04:58:48;22.60;42.98
65371;DHT22;58485;59.934;30.352;2022-09-09T04:59:39;22.60;43.01
65371;DHT22;58485;59.934;30.352;2022-09-09T05:00:32;22.58;43.02
65371;DHT22;58485;59.934;30.352;2022-09-09T05:01:24;22.58;43.05
65371;DHT22;58485;59.934;30.352;2022-09-09T05:02:17;22.60;43.01
65371;DHT22;58485;59.934;30.352;2022-09-09T05:03:10;22.60;42.96
65371;DHT22;58485;59.934;30.352;2022-09-09T05:04:03;22.57;43.05
65371;DHT22;58485;59.934;30.352;2022-09-09T05:04:54;22.58;43.05
65371;DHT22;58485;59.934;30.352;2022-09-09T05:05:46;22.58;43.04
65371;DHT22;58485;59.934;30.352;2022-09-09T05:06:37;22.57;43.01
65371;DHT22;58485;59.934;30.352;2022-09-09T05:07:30;22.57;43.01
65371;DHT22;58485;59.934;30.352;2022-09-09T05:08:22;22.57;43.03
65371;DHT22;58485;59.934;30.352;2022-09-09T05:09:14;22.57;43.03
65371;DHT22;58485;59.934;30.352;2022-09-09T05:10:07;22.58;43.02
65371;DHT22;58485;59.934;30.352;2022-09-09T05:10:58;22.57;43.01
65371;DHT22;58485;59.934;30.352;2022-09-09T05:11:51;22.56;43.01
65371;DHT22;58485;59.934;30.352;2022-09-09T05:12:42;22.57;43.02
65371;DHT22;58485;59.934;30.352;2022-09-09T05:13:34;22.56;43.01
65371;DHT22;58485;59.934;30.352;2022-09-09T05:14:25;22.57;43.01
65371;DHT22;58485;59.934;30.352;2022-09-09T05:15:18;22.56;43.03
65371;DHT22;58485;59.934;30.352;2022-09-09T05:16:11;22.57;43.02
65371;DHT22;58485;59.934;30.352;2022-09-09T05:17:04;22.57;43.01
65371;DHT22;58485;59.934;30.352;2022-09-09T05:17:57;22.55;42.97
65371;DHT22;58485;59.934;30.352;2022-09-09T05:18:52;22.56;42.98
65371;DHT22;58485;59.934;30.352;2022-09-09T05:19:43;22.55;43.00
65371;DHT22;58485;59.934;30.352;2022-09-09T05:20:35;22.54;43.01
65371;DHT22;58485;59.934;30.352;2022-09-09T05:21:26;22.55;43.03
65371;DHT22;58485;59.934;30.352;2022-09-09T05:22:19;22.55;43.03
65371;DHT22;58485;59.934;30.352;2022-09-09T05:23:11;22.55;43.03
65371;DHT22;58485;59.934;30.352;2022-09-09T05:24:04;22.55;43.03
65371;DHT22;58485;59.934;30.352;2022-09-09T05:24:55;22.55;43.01
65371;DHT22;58485;59.934;30.352;2022-09-09T05:25:55;22.54;42.97
65371;DHT22;58485;59.934;30.352;2022-09-09T05:26:47;22.54;43.04
65371;DHT22;58485;59.934;30.352;2022-09-09T05:27:39;22.55;43.05
65371;DHT22;58485;59.934;30.352;2022-09-09T05:28:30;22.54;43.03
65371;DHT22;58485;59.934;30.352;2022-09-09T05:29:23;22.52;43.05
65371;DHT22;58485;59.934;30.352;2022-09-09T05:30:14;22.53;43.09
65371;DHT22;58485;59.934;30.352;2022-09-09T05:31:08;22.53;43.03
65371;DHT22;58485;59.934;30.352;2022-09-09T05:32:00;22.53;43.05
65371;DHT22;58485;59.934;30.352;2022-09-09T05:32:52;22.52;43.05
65371;DHT22;58485;59.934;30.352;2022-09-09T05:33:47;22.53;43.05
65371;DHT22;58485;59.934;30.352;2022-09-09T05:34:41;22.53;43.03
65371;DHT22;58485;59.934;30.352;2022-09-09T05:35:32;22.54;43.08
65371;DHT22;58485;59.934;30.352;2022-09-09T05:36:24;22.53;43.06
65371;DHT22;58485;59.934;30.352;2022-09-09T05:37:16;22.53;43.03
65371;DHT22;58485;59.934;30.352;2022-09-09T05:38:08;22.52;43.05
65371;DHT22;58485;59.934;30.352;2022-09-09T05:39:00;22.52;43.06
65371;DHT22;58485;59.934;30.352;2022-09-09T05:39:52;22.53;43.04
65371;DHT22;58485;59.934;30.352;2022-09-09T05:40:47;22.53;42.96
65371;DHT22;58485;59.934;30.352;2022-09-09T05:41:40;22.52;43.03
65371;DHT22;58485;59.934;30.352;2022-09-09T05:42:32;22.53;43.02
65371;DHT22;58485;59.934;30.352;2022-09-09T05:43:25;22.52;43.00
65371;DHT22;58485;59.934;30.352;2022-09-09T05:44:17;22.52;43.03